Terminal Aerodrome Forecast
Issued by NWS Shreveport, LA

Home | Current Version | Previous Version | Text Only | Print | Product List | Glossary On
Versions: 1 2 3 4 5 6 7 8 9 10 11 12 13 14 15 16 17 18 19 20 21 22
000
FTUS44 KSHV 270555
TAFELD
TAF
KELD 270555Z 2706/2806 00000KT P6SM FEW060
      TEMPO 2710/2713 3SM BR
     FM271300 VRB05KT 6SM BR BKN025
     FM271600 20007KT P6SM SCT040
     FM280100 VRB03KT P6SM BKN035=

USA.gov is the U.S. government's official web portal to all federal, state and local government web resources and services.